Portada
METAR-TAF:

METAR-TAF

Aeroports :

Athens, Tennessee, Estats Units d'Amèrica

latitud: 35-23-50N, longitud: 084-33-45W, altitud: 262 m

Observació

L'informe es va fer fa 24 minuts, a les 10:15 UTC
Vent calma
Temperatura 17°C
Humitat 100%
Pressió 1017 hPa
Visibilitat: 14.5 km
Cel clar

METAR: KMMI 221015Z AUTO 00000KT 9SM CLR 17/17 A3002 RMK A01

Hora: 05:39 (10:39 UTC)


TAF: manca

Observacions i pronòstics meteorològics de més de 4000 aeroports (METAR i TAF).

Les estacions disponibles són els punts grocs i vermells al mapa.

Posi el ratolí al punt desitjat per veure el nom de l'estació.

Feu clic per veure les observacions i els pronòstics meteorològics.

Per canviar el mapa: feu clic els botons verds amb una creu de color negre per apropar; al botó verd amb un guió per allunyar la imatge; o en les fletxes verdes per a mapes adjacents.


METAR-TAF: